KPUC/PUC METAR and TAF weather

Enter ICAO airport designator
Station Type Date Time Source
KPUC METAR 2020/04/03 21:53 UTC NOAA

KPUC 032153Z AUTO 16007KT 130V220 10SM CLR 08/M14 A2992 RMK AO2 SLP153 T00781139


Station Type Date Time Source
KPUC Decoded METAR 2020/04/03 21:53 UTC NOAA

PRICE CARBON COUNTY AIRPORT, UT, United States (KPUC) 39-37N 110-45W 2091M
Apr 03, 2020 - 05:53 PM EDT / 2020.04.03 2153 UTC
Wind: from the SSE (160 degrees) at 8 MPH (7 KT) (direction variable):0
Visibility: 10 mile(s):0
Sky conditions: clear
Temperature: 46.0 F (7.8 C)
Dew Point: 7.0 F (-13.9 C)
Relative Humidity: 19%
Pressure (altimeter): 29.92 in. Hg (1013 hPa)
ob: KPUC 032153Z AUTO 16007KT 130V220 10SM CLR 08/M14 A2992 RMK AO2 SLP153 T00781139
cycle: 22

Station Type Date Time Source
KPUC TAF UTC NOAA

Error!

Example: see airport list